createdAt,value
2022-11-25T00:01:12.328Z,3.80
2022-11-25T00:03:39.788Z,3.80
2022-11-25T00:06:22.381Z,3.70
2022-11-25T00:08:53.478Z,3.70
2022-11-25T00:11:20.226Z,3.80
2022-11-25T00:13:47.676Z,3.80
2022-11-25T00:16:18.093Z,3.70
2022-11-25T00:18:46.208Z,3.70
2022-11-25T00:21:15.806Z,3.70
2022-11-25T00:23:42.716Z,3.70
2022-11-25T00:26:15.132Z,3.60
2022-11-25T00:28:43.873Z,3.50
2022-11-25T00:31:10.470Z,3.50
2022-11-25T00:33:37.729Z,3.50
2022-11-25T00:36:06.070Z,3.50
2022-11-25T00:38:33.029Z,3.50
2022-11-25T00:41:18.178Z,3.60
2022-11-25T00:46:54.713Z,3.40
2022-11-25T00:49:21.444Z,3.30
2022-11-25T00:51:48.168Z,3.30
2022-11-25T00:54:18.275Z,3.40
2022-11-25T00:56:45.097Z,3.40
2022-11-25T00:59:11.757Z,3.50
2022-11-25T01:01:39.039Z,3.50
2022-11-25T01:04:07.442Z,3.40
2022-11-25T01:06:35.293Z,3.40
2022-11-25T01:09:01.935Z,3.30
2022-11-25T01:11:28.932Z,3.30
2022-11-25T01:14:00.929Z,3.40
2022-11-25T01:16:29.211Z,3.30
2022-11-25T01:18:55.895Z,3.40
2022-11-25T01:21:24.965Z,3.40
2022-11-25T01:23:52.175Z,3.30
2022-11-25T01:26:21.448Z,3.40
2022-11-25T01:31:40.230Z,3.60
2022-11-25T01:34:16.372Z,3.60
2022-11-25T01:36:43.206Z,3.60
2022-11-25T01:39:17.390Z,3.70
2022-11-25T01:44:39.115Z,3.80
2022-11-25T01:47:24.376Z,3.80
2022-11-25T01:49:59.589Z,3.90
2022-11-25T01:52:39.660Z,4.10
2022-11-25T01:55:26.724Z,4.20
2022-11-25T01:58:08.275Z,4.30
2022-11-25T02:00:37.547Z,4.50
2022-11-25T02:03:05.216Z,4.60
2022-11-25T02:05:49.947Z,4.70
2022-11-25T02:08:17.684Z,4.80
2022-11-25T02:10:44.955Z,4.90
2022-11-25T02:13:11.909Z,4.90
2022-11-25T02:15:38.627Z,5.00
2022-11-25T02:18:05.686Z,5.10
2022-11-25T02:20:32.520Z,5.10
2022-11-25T02:23:14.775Z,5.10
2022-11-25T02:25:43.418Z,5.10
2022-11-25T02:28:21.004Z,5.10
2022-11-25T02:30:47.813Z,5.10
2022-11-25T02:33:15.079Z,5.10
2022-11-25T02:38:46.110Z,5.00
2022-11-25T02:41:20.778Z,5.00
2022-11-25T02:43:47.714Z,5.10
2022-11-25T02:46:22.505Z,5.00
2022-11-25T02:51:38.493Z,5.00
2022-11-25T02:54:05.549Z,5.00
2022-11-25T02:56:34.435Z,5.00
2022-11-25T02:59:01.953Z,5.00
2022-11-25T03:01:29.775Z,5.00
2022-11-25T03:03:56.851Z,5.00
2022-11-25T03:06:23.727Z,4.90
2022-11-25T03:08:50.340Z,4.90
2022-11-25T03:11:16.923Z,4.80
2022-11-25T03:13:43.705Z,4.80
2022-11-25T03:16:10.367Z,4.80
2022-11-25T03:18:37.201Z,4.80
2022-11-25T03:21:03.903Z,4.80
2022-11-25T03:23:30.594Z,4.80
2022-11-25T03:25:57.224Z,4.90
2022-11-25T03:28:23.918Z,4.90
2022-11-25T03:30:50.560Z,4.90
2022-11-25T03:33:17.232Z,5.00
2022-11-25T03:35:43.837Z,5.00
2022-11-25T03:38:10.420Z,5.00
2022-11-25T03:40:36.988Z,5.00
2022-11-25T03:43:04.744Z,5.00
2022-11-25T03:45:31.366Z,5.00
2022-11-25T03:47:58.040Z,5.00
2022-11-25T03:50:24.674Z,5.00
2022-11-25T03:52:51.312Z,5.00
2022-11-25T03:55:17.963Z,5.00
2022-11-25T03:57:44.536Z,5.00
2022-11-25T04:00:12.041Z,4.90
2022-11-25T04:02:38.680Z,5.00
2022-11-25T04:05:05.744Z,5.00
2022-11-25T04:07:32.441Z,5.00
2022-11-25T04:09:59.080Z,4.90
2022-11-25T04:12:44.648Z,4.90
2022-11-25T04:15:11.482Z,4.80
2022-11-25T04:17:38.223Z,4.80
2022-11-25T04:20:05.489Z,4.80
2022-11-25T04:22:32.035Z,4.80
2022-11-25T04:24:58.676Z,4.80
2022-11-25T04:27:25.255Z,4.80
2022-11-25T04:29:51.869Z,4.70
2022-11-25T04:32:18.931Z,4.70
2022-11-25T04:34:45.477Z,4.70
2022-11-25T04:37:12.039Z,4.60
2022-11-25T04:39:38.621Z,4.60
2022-11-25T04:42:23.876Z,4.60
2022-11-25T04:45:07.593Z,4.70
2022-11-25T04:47:37.311Z,4.70
2022-11-25T04:50:07.624Z,4.70
2022-11-25T04:52:34.265Z,4.80
2022-11-25T04:55:01.070Z,4.70
2022-11-25T04:57:27.700Z,4.60
2022-11-25T04:59:54.253Z,4.70
2022-11-25T05:02:24.567Z,4.70
2022-11-25T05:04:53.047Z,4.70
2022-11-25T05:07:21.746Z,4.70
2022-11-25T05:09:48.635Z,4.70
2022-11-25T05:12:18.834Z,4.90
2022-11-25T05:14:45.611Z,5.10
2022-11-25T05:17:17.470Z,5.30
2022-11-25T05:19:45.921Z,5.40
2022-11-25T05:22:14.494Z,5.50
2022-11-25T05:24:41.151Z,5.50
2022-11-25T05:27:08.088Z,5.50
2022-11-25T05:29:34.860Z,5.50
2022-11-25T05:32:01.450Z,5.60
2022-11-25T05:34:28.031Z,5.70
2022-11-25T05:36:54.674Z,5.90
2022-11-25T05:39:21.435Z,6.00
2022-11-25T05:41:47.996Z,6.10
2022-11-25T05:44:18.383Z,6.20
2022-11-25T05:46:48.878Z,6.30
2022-11-25T05:49:16.743Z,6.40
2022-11-25T05:51:43.309Z,6.40
2022-11-25T05:54:09.904Z,6.50
2022-11-25T05:56:36.900Z,6.60
2022-11-25T05:59:03.740Z,6.60
2022-11-25T06:01:31.807Z,6.70
2022-11-25T06:04:02.611Z,6.70
2022-11-25T06:06:29.942Z,6.70
2022-11-25T06:08:56.627Z,6.80
2022-11-25T06:11:25.317Z,6.80
2022-11-25T06:13:52.073Z,6.80
2022-11-25T06:16:21.801Z,6.80
2022-11-25T06:18:49.379Z,6.80
2022-11-25T06:21:16.405Z,6.80
2022-11-25T06:23:45.324Z,6.80
2022-11-25T06:26:22.255Z,6.90
2022-11-25T06:28:50.341Z,6.90
2022-11-25T06:31:19.561Z,7.00
2022-11-25T06:33:47.621Z,7.00
2022-11-25T06:36:17.244Z,7.10
2022-11-25T06:38:45.878Z,7.00
2022-11-25T06:41:13.101Z,7.10
2022-11-25T06:43:39.951Z,7.20
2022-11-25T06:46:09.081Z,7.10
2022-11-25T06:48:36.291Z,7.20
2022-11-25T06:51:06.134Z,7.20
2022-11-25T06:53:33.670Z,7.30
2022-11-25T06:56:15.025Z,7.30
2022-11-25T06:58:42.891Z,7.20
2022-11-25T07:01:23.941Z,7.20
2022-11-25T07:03:53.137Z,7.20
2022-11-25T07:06:20.983Z,7.20
2022-11-25T07:08:48.334Z,7.20
2022-11-25T07:11:19.127Z,7.20
2022-11-25T07:13:46.968Z,7.30
2022-11-25T07:16:14.626Z,7.30
2022-11-25T07:18:42.033Z,7.20
2022-11-25T07:21:17.342Z,7.20
2022-11-25T07:23:45.315Z,7.20
2022-11-25T07:26:21.645Z,7.20
2022-11-25T07:28:49.765Z,7.30
2022-11-25T07:31:25.043Z,7.30
2022-11-25T07:34:06.081Z,7.30
2022-11-25T07:36:34.184Z,7.30
2022-11-25T07:39:03.465Z,7.40
2022-11-25T07:41:30.532Z,7.40
2022-11-25T07:44:02.031Z,7.40
2022-11-25T07:46:34.786Z,7.50
2022-11-25T07:49:04.147Z,7.50
2022-11-25T07:51:36.624Z,7.60
2022-11-25T07:54:05.437Z,7.60
2022-11-25T07:56:34.444Z,7.70
2022-11-25T07:59:01.717Z,7.70
2022-11-25T08:01:28.745Z,7.80
2022-11-25T08:03:55.588Z,7.80
2022-11-25T08:06:27.752Z,7.90
2022-11-25T08:08:56.475Z,7.90
2022-11-25T08:11:29.944Z,7.90
2022-11-25T08:13:57.821Z,8.00
2022-11-25T08:16:27.197Z,8.00
2022-11-25T08:18:54.929Z,8.00
2022-11-25T08:21:21.587Z,8.00
2022-11-25T08:23:52.437Z,8.00
2022-11-25T08:26:22.849Z,8.00
2022-11-25T08:28:49.930Z,8.00
2022-11-25T08:31:20.320Z,8.00
2022-11-25T08:33:47.959Z,8.00
2022-11-25T08:36:15.515Z,8.00
2022-11-25T08:38:43.705Z,8.00
2022-11-25T08:41:16.420Z,8.00
2022-11-25T08:43:43.400Z,8.00
2022-11-25T08:46:12.724Z,8.00
2022-11-25T08:48:39.495Z,8.00
2022-11-25T08:51:29.791Z,8.00
2022-11-25T08:53:56.996Z,8.10
2022-11-25T08:56:26.465Z,8.10
2022-11-25T08:58:54.426Z,8.10
2022-11-25T09:01:23.301Z,8.10
2022-11-25T09:03:54.160Z,8.10
2022-11-25T09:06:21.365Z,8.10
2022-11-25T09:08:48.501Z,8.10
2022-11-25T09:11:15.489Z,8.10
2022-11-25T09:13:42.323Z,8.10
2022-11-25T09:16:09.648Z,8.10
2022-11-25T09:18:37.378Z,8.20
2022-11-25T09:21:10.152Z,8.10
2022-11-25T09:23:38.680Z,8.10
2022-11-25T09:26:06.920Z,8.20
2022-11-25T09:28:34.746Z,8.10
2022-11-25T09:31:07.806Z,8.20
2022-11-25T09:33:34.421Z,8.20
2022-11-25T09:36:01.966Z,8.20
2022-11-25T09:38:28.603Z,8.20
2022-11-25T09:41:10.061Z,8.30
2022-11-25T09:44:03.010Z,8.20
2022-11-25T09:46:46.187Z,8.30
2022-11-25T09:49:31.791Z,8.40
2022-11-25T09:52:09.696Z,8.40
2022-11-25T09:54:47.885Z,8.50
2022-11-25T09:57:27.185Z,8.50
2022-11-25T10:00:02.992Z,8.50
2022-11-25T10:02:35.133Z,8.60
2022-11-25T10:05:06.860Z,8.60
2022-11-25T10:07:52.906Z,8.70
2022-11-25T10:10:27.994Z,8.70
2022-11-25T10:12:57.362Z,8.70
2022-11-25T10:15:32.630Z,8.70
2022-11-25T10:18:10.690Z,8.80
2022-11-25T10:20:38.958Z,8.70
2022-11-25T10:23:32.016Z,8.80
2022-11-25T10:26:14.475Z,8.80
2022-11-25T10:28:49.894Z,8.80
2022-11-25T10:31:25.512Z,8.80
2022-11-25T10:33:54.970Z,8.90
2022-11-25T10:36:38.163Z,9.00
2022-11-25T10:39:17.331Z,9.00
2022-11-25T10:41:56.745Z,9.10
2022-11-25T10:44:27.726Z,9.20
2022-11-25T10:47:33.540Z,9.30
2022-11-25T10:50:15.375Z,9.30
2022-11-25T10:52:51.387Z,9.40
2022-11-25T10:58:28.491Z,9.60
2022-11-25T11:01:18.468Z,9.60
2022-11-25T11:03:51.326Z,9.70
2022-11-25T11:06:38.273Z,9.70
2022-11-25T11:09:05.284Z,9.70
2022-11-25T11:11:32.638Z,9.60
2022-11-25T11:17:04.410Z,9.60
2022-11-25T11:19:32.023Z,9.60
2022-11-25T11:22:25.097Z,9.40
2022-11-25T11:25:25.140Z,9.40
2022-11-25T11:27:51.811Z,9.40
2022-11-25T11:30:21.696Z,9.30
2022-11-25T11:33:07.021Z,9.40
2022-11-25T11:35:47.609Z,9.40
2022-11-25T11:38:24.082Z,9.50
2022-11-25T11:40:55.881Z,9.50
2022-11-25T11:43:31.474Z,9.60
2022-11-25T11:46:35.515Z,9.80
2022-11-25T11:49:05.613Z,9.90
2022-11-25T11:52:00.182Z,10.00
2022-11-25T11:54:34.456Z,10.10
2022-11-25T11:57:12.931Z,10.10
2022-11-25T11:59:48.907Z,10.30
2022-11-25T12:02:18.477Z,10.40
2022-11-25T12:04:52.040Z,10.50
2022-11-25T12:07:22.624Z,10.90
2022-11-25T12:10:17.835Z,11.00
2022-11-25T12:12:44.430Z,11.40
2022-11-25T12:15:28.703Z,11.70
2022-11-25T12:18:02.507Z,11.80
2022-11-25T12:20:57.185Z,11.60
2022-11-25T12:23:43.754Z,11.50
2022-11-25T12:26:21.453Z,11.30
2022-11-25T12:29:02.669Z,11.10
2022-11-25T12:31:37.395Z,10.80
2022-11-25T12:34:08.083Z,10.70
2022-11-25T12:36:40.205Z,10.60
2022-11-25T12:39:30.864Z,10.40
2022-11-25T12:42:04.610Z,10.40
2022-11-25T12:44:43.185Z,10.40
2022-11-25T12:47:11.446Z,10.30
2022-11-25T12:49:46.688Z,10.30
2022-11-25T12:52:23.872Z,10.20
2022-11-25T12:54:59.619Z,10.20
2022-11-25T12:57:51.059Z,10.00
2022-11-25T13:00:41.065Z,9.90
2022-11-25T13:03:25.633Z,9.90
2022-11-25T13:06:13.750Z,9.80
2022-11-25T13:09:09.930Z,9.90
2022-11-25T13:11:40.092Z,9.90
2022-11-25T13:14:30.280Z,9.90
2022-11-25T13:16:58.359Z,9.90
2022-11-25T13:19:26.726Z,9.90
2022-11-25T13:22:23.690Z,9.90
2022-11-25T13:24:50.609Z,9.90
2022-11-25T13:27:33.361Z,9.90
2022-11-25T13:30:00.976Z,10.10
2022-11-25T13:32:31.124Z,10.20
2022-11-25T13:35:22.711Z,10.20
2022-11-25T13:37:50.205Z,10.10
2022-11-25T13:40:23.472Z,10.10
2022-11-25T13:42:51.427Z,10.10
2022-11-25T13:45:43.643Z,10.20
2022-11-25T13:48:31.835Z,10.20
2022-11-25T13:51:20.623Z,10.20
2022-11-25T13:53:56.210Z,10.20
2022-11-25T13:56:27.227Z,10.20
2022-11-25T13:59:12.273Z,10.20
2022-11-25T14:02:00.706Z,10.20
2022-11-25T14:05:11.374Z,10.20
2022-11-25T14:07:55.648Z,10.10
2022-11-25T14:10:52.375Z,10.10
2022-11-25T14:13:24.728Z,10.00
2022-11-25T14:16:06.523Z,9.90
2022-11-25T14:19:03.626Z,9.80
2022-11-25T14:21:42.168Z,9.70
2022-11-25T14:24:24.018Z,9.60
2022-11-25T14:26:55.052Z,9.60
2022-11-25T14:29:45.145Z,9.50
2022-11-25T14:32:35.136Z,9.40
2022-11-25T14:35:10.013Z,9.40
2022-11-25T14:37:43.534Z,9.40
2022-11-25T14:40:26.762Z,9.30
2022-11-25T14:43:07.407Z,9.20
2022-11-25T14:45:35.441Z,9.20
2022-11-25T14:48:19.614Z,9.10
2022-11-25T14:51:00.979Z,9.00
2022-11-25T14:53:30.048Z,9.00
2022-11-25T14:56:00.092Z,9.00
2022-11-25T14:58:27.891Z,8.90
2022-11-25T15:00:57.581Z,8.80
2022-11-25T15:03:25.203Z,8.70
2022-11-25T15:05:59.372Z,8.50
2022-11-25T15:08:29.663Z,8.40
2022-11-25T15:11:02.002Z,8.30
2022-11-25T15:13:36.134Z,8.30
2022-11-25T15:16:25.105Z,8.20
2022-11-25T15:19:00.696Z,8.20
2022-11-25T15:21:48.632Z,8.10
2022-11-25T15:24:29.817Z,8.10
2022-11-25T15:26:59.152Z,8.00
2022-11-25T15:29:28.287Z,7.90
2022-11-25T15:31:55.749Z,7.80
2022-11-25T15:34:23.989Z,7.70
2022-11-25T15:36:54.386Z,7.70
2022-11-25T15:39:21.465Z,7.70
2022-11-25T15:42:28.161Z,7.70
2022-11-25T15:45:08.713Z,7.70
2022-11-25T15:47:35.940Z,7.60
2022-11-25T15:50:24.204Z,7.50
2022-11-25T15:52:55.401Z,7.50
2022-11-25T15:55:38.422Z,7.40
2022-11-25T15:58:11.309Z,7.40
2022-11-25T16:00:38.145Z,7.40
2022-11-25T16:03:19.917Z,7.60
2022-11-25T16:05:57.337Z,7.70
2022-11-25T16:08:38.224Z,7.70
2022-11-25T16:11:20.565Z,7.80
2022-11-25T16:13:48.515Z,7.90
2022-11-25T16:16:15.400Z,8.00
2022-11-25T16:19:09.491Z,8.00
2022-11-25T16:21:36.076Z,8.10
2022-11-25T16:24:05.701Z,8.20
2022-11-25T16:26:37.908Z,8.20
2022-11-25T16:29:15.884Z,8.20
2022-11-25T16:31:42.634Z,8.20
2022-11-25T16:34:18.594Z,8.30
2022-11-25T16:36:45.563Z,8.30
2022-11-25T16:39:12.641Z,8.30
2022-11-25T16:41:41.205Z,8.20
2022-11-25T16:44:19.672Z,8.20
2022-11-25T16:46:47.354Z,8.10
2022-11-25T16:49:16.099Z,8.00
2022-11-25T16:51:43.093Z,8.00
2022-11-25T16:54:09.788Z,8.00
2022-11-25T16:56:55.255Z,8.00
2022-11-25T16:59:37.463Z,8.00
2022-11-25T17:02:09.827Z,8.00
2022-11-25T17:04:36.475Z,8.10
2022-11-25T17:07:34.639Z,8.20
2022-11-25T17:09:52.524Z,8.30
2022-11-25T17:12:27.575Z,8.50
2022-11-25T17:14:54.483Z,8.60
2022-11-25T17:17:25.045Z,8.70
2022-11-25T17:19:52.901Z,8.70
2022-11-25T17:22:22.629Z,8.90
2022-11-25T17:24:49.406Z,9.00
2022-11-25T17:27:21.363Z,9.10
2022-11-25T17:29:48.848Z,9.10
2022-11-25T17:32:16.251Z,9.10
2022-11-25T17:34:43.240Z,9.10
2022-11-25T17:37:18.314Z,9.20
2022-11-25T17:39:45.027Z,9.10
2022-11-25T17:42:16.591Z,9.10
2022-11-25T17:44:48.570Z,9.00
2022-11-25T17:47:18.511Z,9.00
2022-11-25T17:49:49.719Z,9.10
2022-11-25T17:52:16.405Z,9.00
2022-11-25T17:54:43.048Z,9.20
2022-11-25T17:57:17.509Z,9.20
2022-11-25T17:59:44.306Z,9.20
2022-11-25T18:02:22.129Z,9.20
2022-11-25T18:04:49.510Z,9.20
2022-11-25T18:07:16.657Z,9.20
2022-11-25T18:09:44.335Z,9.20
2022-11-25T18:12:21.188Z,9.20
2022-11-25T18:14:48.665Z,9.10
2022-11-25T18:17:18.667Z,9.10
2022-11-25T18:19:51.315Z,9.10
2022-11-25T18:22:21.142Z,9.10
2022-11-25T18:24:48.084Z,9.10
2022-11-25T18:27:20.179Z,9.10
2022-11-25T18:29:47.624Z,9.20
2022-11-25T18:32:14.503Z,9.20
2022-11-25T18:34:41.184Z,9.20
2022-11-25T18:37:11.962Z,9.20
2022-11-25T18:39:38.830Z,9.20
2022-11-25T18:42:07.312Z,9.20
2022-11-25T18:44:43.463Z,9.20
2022-11-25T18:47:13.724Z,9.20
2022-11-25T18:49:40.365Z,9.20
2022-11-25T18:52:07.008Z,9.20
2022-11-25T18:54:33.614Z,9.10
2022-11-25T18:57:00.470Z,9.10
2022-11-25T18:59:33.867Z,9.10
2022-11-25T19:02:00.757Z,9.00
2022-11-25T19:04:27.789Z,9.10
2022-11-25T19:06:54.471Z,9.00
2022-11-25T19:09:21.052Z,9.00
2022-11-25T19:11:52.925Z,9.00
2022-11-25T19:14:36.126Z,9.10
2022-11-25T19:17:07.439Z,9.00
2022-11-25T19:19:36.593Z,9.00
2022-11-25T19:22:09.820Z,9.00
2022-11-25T19:24:36.850Z,9.00
2022-11-25T19:27:03.635Z,9.00
2022-11-25T19:29:41.822Z,9.00
2022-11-25T19:32:21.952Z,9.00
2022-11-25T19:34:55.009Z,9.00
2022-11-25T19:37:22.850Z,9.00
2022-11-25T19:39:53.587Z,8.90
2022-11-25T19:42:20.532Z,8.90
2022-11-25T19:44:47.204Z,8.80
2022-11-25T19:47:25.028Z,8.80
2022-11-25T19:49:54.733Z,8.80
2022-11-25T19:52:30.507Z,8.80
2022-11-25T19:54:57.084Z,8.70
2022-11-25T19:57:25.098Z,8.70
2022-11-25T19:59:52.277Z,8.70
2022-11-25T20:02:22.097Z,8.60
2022-11-25T20:04:52.537Z,8.60
2022-11-25T20:07:21.672Z,8.50
2022-11-25T20:09:51.047Z,8.40
2022-11-25T20:12:28.426Z,8.40
2022-11-25T20:14:56.570Z,8.40
2022-11-25T20:17:29.178Z,8.30
2022-11-25T20:20:00.256Z,8.40
2022-11-25T20:22:31.232Z,8.30
2022-11-25T20:25:03.590Z,8.30
2022-11-25T20:27:30.167Z,8.30
2022-11-25T20:29:56.985Z,8.30
2022-11-25T20:32:33.913Z,8.30
2022-11-25T20:35:00.508Z,8.20
2022-11-25T20:37:29.655Z,8.20
2022-11-25T20:39:59.121Z,8.10
2022-11-25T20:42:26.990Z,8.10
2022-11-25T20:44:57.547Z,8.10
2022-11-25T20:47:26.138Z,8.10
2022-11-25T20:49:53.922Z,8.00
2022-11-25T20:52:27.527Z,7.90
2022-11-25T20:54:54.297Z,7.90
2022-11-25T20:57:21.065Z,8.00
2022-11-25T20:59:47.879Z,7.90
2022-11-25T21:02:14.643Z,7.90
2022-11-25T21:04:41.255Z,7.90
2022-11-25T21:07:14.658Z,7.90
2022-11-25T21:09:41.762Z,7.80
2022-11-25T21:12:19.207Z,7.80
2022-11-25T21:14:47.062Z,7.80
2022-11-25T21:17:13.676Z,7.80
2022-11-25T21:19:40.240Z,7.80
2022-11-25T21:22:07.155Z,7.70
2022-11-25T21:24:38.453Z,7.70
2022-11-25T21:27:14.621Z,7.80
2022-11-25T21:29:43.152Z,7.80
2022-11-25T21:32:25.427Z,7.70
2022-11-25T21:34:52.348Z,7.70
2022-11-25T21:37:31.543Z,7.60
2022-11-25T21:39:59.124Z,7.60
2022-11-25T21:42:26.844Z,7.60
2022-11-25T21:44:54.298Z,7.60
2022-11-25T21:47:25.269Z,7.60
2022-11-25T21:49:52.521Z,7.60
2022-11-25T21:52:19.665Z,7.60
2022-11-25T21:54:46.406Z,7.60
2022-11-25T21:57:19.832Z,7.60
2022-11-25T21:59:47.404Z,7.50
2022-11-25T22:02:22.497Z,7.60
2022-11-25T22:04:49.660Z,7.60
2022-11-25T22:07:16.844Z,7.60
2022-11-25T22:09:43.922Z,7.50
2022-11-25T22:12:30.854Z,7.50
2022-11-25T22:14:59.200Z,7.50
2022-11-25T22:17:26.037Z,7.50
2022-11-25T22:19:53.353Z,7.40
2022-11-25T22:22:20.136Z,7.40
2022-11-25T22:24:46.705Z,7.40
2022-11-25T22:27:25.992Z,7.40
2022-11-25T22:29:52.895Z,7.30
2022-11-25T22:32:19.470Z,7.40
2022-11-25T22:34:46.354Z,7.30
2022-11-25T22:37:18.236Z,7.30
2022-11-25T22:39:48.205Z,7.20
2022-11-25T22:42:25.611Z,7.20
2022-11-25T22:44:53.149Z,7.20
2022-11-25T22:47:25.727Z,7.10
2022-11-25T22:49:52.955Z,7.10
2022-11-25T22:52:21.644Z,7.10
2022-11-25T22:54:49.155Z,7.10
2022-11-25T22:57:16.549Z,7.10
2022-11-25T22:59:43.532Z,7.00
2022-11-25T23:02:33.836Z,6.90
2022-11-25T23:05:00.668Z,6.90
2022-11-25T23:07:27.811Z,6.80
2022-11-25T23:09:56.030Z,6.70
2022-11-25T23:12:22.604Z,6.80
2022-11-25T23:14:49.197Z,6.80
2022-11-25T23:17:24.551Z,6.80
2022-11-25T23:22:42.428Z,6.70
2022-11-25T23:25:17.796Z,6.70
2022-11-25T23:27:44.463Z,6.70
2022-11-25T23:30:17.277Z,6.70
2022-11-25T23:32:44.775Z,6.70
2022-11-25T23:35:20.549Z,6.70
2022-11-25T23:37:53.977Z,6.70
2022-11-25T23:40:22.182Z,6.60
2022-11-25T23:42:48.938Z,6.60
2022-11-25T23:45:21.013Z,6.50
2022-11-25T23:47:50.273Z,6.50
2022-11-25T23:50:32.149Z,6.50
2022-11-25T23:53:03.361Z,6.40
2022-11-25T23:55:38.544Z,6.30
2022-11-25T23:58:14.672Z,6.30
